createdAt,value
2017-08-24T00:01:41.149Z,98827.72
2017-08-24T00:04:08.737Z,98820.09
2017-08-24T00:06:36.198Z,98824.59
2017-08-24T00:09:03.652Z,98821.59
2017-08-24T00:11:31.140Z,98821.10
2017-08-24T00:13:58.596Z,98825.34
2017-08-24T00:16:26.104Z,98831.77
2017-08-24T00:18:53.582Z,98829.84
2017-08-24T00:21:21.062Z,98827.50
2017-08-24T00:23:48.556Z,98822.69
2017-08-24T00:26:16.046Z,98822.85
2017-08-24T00:28:43.510Z,98829.92
2017-08-24T00:31:11.011Z,98825.27
2017-08-24T00:33:38.507Z,98823.30
2017-08-24T00:36:05.963Z,98825.78
2017-08-24T00:38:33.462Z,98830.91
2017-08-24T00:41:01.622Z,98837.30
2017-08-24T00:43:29.095Z,98831.47
2017-08-24T00:45:56.601Z,98829.06
2017-08-24T00:48:24.099Z,98829.41
2017-08-24T00:50:51.577Z,98829.68
2017-08-24T00:53:19.100Z,98829.52
2017-08-24T00:55:46.586Z,98831.19
2017-08-24T00:58:14.069Z,98839.59
2017-08-24T01:00:41.554Z,98835.27
2017-08-24T01:03:09.062Z,98837.75
2017-08-24T01:05:36.525Z,98841.09
2017-08-24T01:08:04.019Z,98844.54
2017-08-24T01:10:31.493Z,98843.88
2017-08-24T01:12:58.968Z,98838.31
2017-08-24T01:15:26.464Z,98840.40
2017-08-24T01:17:53.950Z,98839.56
2017-08-24T01:20:21.426Z,98841.64
2017-08-24T01:22:48.920Z,98842.33
2017-08-24T01:25:16.433Z,98846.36
2017-08-24T01:27:43.937Z,98843.28
2017-08-24T01:30:11.430Z,98835.72
2017-08-24T01:32:38.924Z,98846.86
2017-08-24T01:35:06.421Z,98842.03
2017-08-24T01:37:34.312Z,98843.64
2017-08-24T01:40:01.782Z,98844.72
2017-08-24T01:42:29.237Z,98852.05
2017-08-24T01:44:56.735Z,98854.59
2017-08-24T01:47:24.996Z,98852.75
2017-08-24T01:49:52.520Z,98858.31
2017-08-24T01:52:19.993Z,98852.59
2017-08-24T01:54:47.473Z,98856.97
2017-08-24T01:57:14.940Z,98857.31
2017-08-24T01:59:42.466Z,98859.41
2017-08-24T02:02:09.948Z,98863.41
2017-08-24T02:04:37.415Z,98860.56
2017-08-24T02:07:06.368Z,98862.11
2017-08-24T02:09:33.853Z,98863.00
2017-08-24T02:12:01.333Z,98863.63
2017-08-24T02:14:28.782Z,98864.92
2017-08-24T02:16:56.289Z,98862.84
2017-08-24T02:19:23.760Z,98864.89
2017-08-24T02:21:51.256Z,98859.91
2017-08-24T02:24:18.718Z,98859.16
2017-08-24T02:26:46.231Z,98860.16
2017-08-24T02:29:13.706Z,98854.83
2017-08-24T02:31:41.185Z,98856.73
2017-08-24T02:34:08.675Z,98855.09
2017-08-24T02:36:36.161Z,98854.73
2017-08-24T02:39:03.641Z,98852.66
2017-08-24T02:41:31.160Z,98848.28
2017-08-24T02:43:58.669Z,98852.81
2017-08-24T02:46:26.160Z,98843.03
2017-08-24T02:48:53.671Z,98851.89
2017-08-24T02:51:21.125Z,98863.69
2017-08-24T02:53:48.612Z,98863.78
2017-08-24T02:56:16.081Z,98861.30
2017-08-24T02:58:43.578Z,98862.66
2017-08-24T03:01:11.043Z,98866.70
2017-08-24T03:03:38.652Z,98870.10
2017-08-24T03:06:06.113Z,98870.55
2017-08-24T03:08:33.572Z,98873.70
2017-08-24T03:11:01.087Z,98869.67
2017-08-24T03:13:28.552Z,98872.71
2017-08-24T03:15:56.038Z,98868.16
2017-08-24T03:18:23.502Z,98879.97
2017-08-24T03:20:50.989Z,98875.99
2017-08-24T03:23:18.543Z,98868.92
2017-08-24T03:25:46.034Z,98871.50
2017-08-24T03:28:13.513Z,98867.82
2017-08-24T03:30:41.017Z,98873.91
2017-08-24T03:33:08.473Z,98873.73
2017-08-24T03:35:36.312Z,98869.96
2017-08-24T03:38:03.787Z,98870.90
2017-08-24T03:40:31.566Z,98877.88
2017-08-24T03:42:59.052Z,98875.78
2017-08-24T03:45:26.568Z,98881.31
2017-08-24T03:47:54.064Z,98873.59
2017-08-24T03:50:21.545Z,98880.56
2017-08-24T03:52:49.055Z,98874.39
2017-08-24T03:55:16.509Z,98881.86
2017-08-24T03:57:44.003Z,98877.94
2017-08-24T04:00:11.495Z,98879.45
2017-08-24T04:02:38.998Z,98879.91
2017-08-24T04:05:06.474Z,98882.69
2017-08-24T04:07:33.984Z,98876.17
2017-08-24T04:10:01.664Z,98880.84
2017-08-24T04:12:29.189Z,98893.63
2017-08-24T04:14:56.746Z,98886.52
2017-08-24T04:17:24.237Z,98889.02
2017-08-24T04:19:51.744Z,98887.13
2017-08-24T04:22:19.227Z,98887.92
2017-08-24T04:24:46.736Z,98890.42
2017-08-24T04:27:14.203Z,98897.14
2017-08-24T04:29:41.688Z,98902.64
2017-08-24T04:32:09.157Z,98902.30
2017-08-24T04:34:36.662Z,98909.46
2017-08-24T04:37:05.442Z,98905.19
2017-08-24T04:39:32.980Z,98916.55
2017-08-24T04:42:00.460Z,98913.92
2017-08-24T04:44:27.993Z,98916.02
2017-08-24T04:46:55.485Z,98924.27
2017-08-24T04:49:22.982Z,98926.27
2017-08-24T04:51:50.444Z,98926.72
2017-08-24T04:54:18.060Z,98935.78
2017-08-24T04:56:45.547Z,98940.02
2017-08-24T04:59:13.056Z,98940.61
2017-08-24T05:01:40.573Z,98940.61
2017-08-24T05:04:08.090Z,98944.84
2017-08-24T05:06:35.628Z,98944.39
2017-08-24T05:09:03.112Z,98946.23
2017-08-24T05:11:30.633Z,98947.03
2017-08-24T05:13:58.092Z,98953.18
2017-08-24T05:16:25.592Z,98953.59
2017-08-24T05:18:53.087Z,98952.56
2017-08-24T05:21:20.538Z,98958.45
2017-08-24T05:23:48.301Z,98962.20
2017-08-24T05:26:15.789Z,98967.89
2017-08-24T05:28:43.271Z,98968.39
2017-08-24T05:31:10.771Z,98965.13
2017-08-24T05:33:38.297Z,98973.46
2017-08-24T05:36:06.115Z,98970.61
2017-08-24T05:38:35.481Z,98967.88
2017-08-24T05:41:03.010Z,98968.13
2017-08-24T05:43:30.514Z,98974.89
2017-08-24T05:45:58.002Z,98979.08
2017-08-24T05:48:25.464Z,98977.28
2017-08-24T05:50:52.953Z,98978.63
2017-08-24T05:53:20.416Z,98971.05
2017-08-24T05:55:47.982Z,98973.19
2017-08-24T05:58:15.497Z,98976.83
2017-08-24T06:00:42.974Z,98988.55
2017-08-24T06:03:10.469Z,98983.56
2017-08-24T06:05:37.970Z,98975.98
2017-08-24T06:08:05.480Z,98978.28
2017-08-24T06:10:32.986Z,98982.91
2017-08-24T06:13:00.553Z,98977.13
2017-08-24T06:15:28.033Z,98981.38
2017-08-24T06:17:55.555Z,98976.62
2017-08-24T06:20:23.094Z,98973.03
2017-08-24T06:22:50.587Z,98967.88
2017-08-24T06:25:18.088Z,98967.48
2017-08-24T06:27:45.584Z,98980.16
2017-08-24T06:30:13.074Z,98985.30
2017-08-24T06:32:41.040Z,98974.40
2017-08-24T06:35:08.545Z,98973.34
2017-08-24T06:37:36.072Z,98969.12
2017-08-24T06:40:03.604Z,98978.72
2017-08-24T06:42:31.129Z,98978.08
2017-08-24T06:44:58.628Z,98980.85
2017-08-24T06:47:26.094Z,98977.37
2017-08-24T06:49:53.609Z,98981.80
2017-08-24T06:52:21.060Z,98978.72
2017-08-24T06:54:48.876Z,98982.53
2017-08-24T06:57:16.379Z,98985.84
2017-08-24T06:59:43.899Z,98985.09
2017-08-24T07:02:11.402Z,99002.30
2017-08-24T07:04:38.892Z,98997.93
2017-08-24T07:07:06.341Z,98975.72
2017-08-24T07:09:33.862Z,99001.70
2017-08-24T07:12:01.354Z,99002.09
2017-08-24T07:14:28.805Z,99010.38
2017-08-24T07:16:56.284Z,98999.77
2017-08-24T07:19:23.752Z,99007.64
2017-08-24T07:21:51.262Z,98982.11
2017-08-24T07:24:18.719Z,99011.03
2017-08-24T07:26:46.255Z,99016.17
2017-08-24T07:29:14.182Z,99025.05
2017-08-24T07:31:41.671Z,99028.30
2017-08-24T07:34:09.147Z,99028.03
2017-08-24T07:36:36.783Z,99039.90
2017-08-24T07:39:04.252Z,99045.88
2017-08-24T07:41:31.829Z,99051.80
2017-08-24T07:43:59.313Z,99059.19
2017-08-24T07:46:26.803Z,99038.88
2017-08-24T07:48:54.349Z,99051.75
2017-08-24T07:51:21.810Z,99064.52
2017-08-24T07:53:49.445Z,99061.55
2017-08-24T07:56:17.167Z,99061.76
2017-08-24T07:58:44.710Z,99062.47
2017-08-24T08:01:13.251Z,99062.39
2017-08-24T08:03:40.882Z,99062.43
2017-08-24T08:06:08.342Z,99064.02
2017-08-24T08:08:35.815Z,99073.91
2017-08-24T08:11:03.293Z,99074.53
2017-08-24T08:13:30.836Z,99080.42
2017-08-24T08:15:58.338Z,99075.54
2017-08-24T08:18:25.893Z,99076.56
2017-08-24T08:20:53.431Z,99081.95
2017-08-24T08:23:20.921Z,99083.34
2017-08-24T08:25:48.414Z,99084.63
2017-08-24T08:28:15.995Z,99070.06
2017-08-24T08:30:43.479Z,99075.05
2017-08-24T08:33:11.015Z,99095.91
2017-08-24T08:35:38.522Z,99091.34
2017-08-24T08:38:06.036Z,99088.31
2017-08-24T08:40:33.523Z,99087.28
2017-08-24T08:43:01.031Z,99083.08
2017-08-24T08:45:28.509Z,99087.47
2017-08-24T08:47:55.998Z,99087.33
2017-08-24T08:50:23.449Z,99087.94
2017-08-24T08:52:51.185Z,99088.55
2017-08-24T08:55:18.645Z,99097.58
2017-08-24T08:57:46.137Z,99093.78
2017-08-24T09:00:13.655Z,99097.31
2017-08-24T09:02:41.141Z,99100.14
2017-08-24T09:05:08.685Z,99097.12
2017-08-24T09:07:36.164Z,99097.48
2017-08-24T09:10:03.672Z,99101.13
2017-08-24T09:12:31.181Z,99098.48
2017-08-24T09:14:58.918Z,99104.35
2017-08-24T09:17:26.386Z,99102.06
2017-08-24T09:19:53.941Z,99102.86
2017-08-24T09:22:21.432Z,99097.38
2017-08-24T09:24:48.957Z,99093.73
2017-08-24T09:27:16.436Z,99098.25
2017-08-24T09:29:43.933Z,99104.70
2017-08-24T09:32:11.411Z,99101.83
2017-08-24T09:34:38.861Z,99099.19
2017-08-24T09:37:06.340Z,99105.98
2017-08-24T09:39:34.133Z,99105.25
2017-08-24T09:42:01.642Z,99102.87
2017-08-24T09:44:29.140Z,99105.80
2017-08-24T09:46:56.636Z,99103.73
2017-08-24T09:49:24.195Z,99100.63
2017-08-24T09:51:52.702Z,99092.30
2017-08-24T09:54:20.211Z,99101.80
2017-08-24T09:56:47.702Z,99098.02
2017-08-24T09:59:15.272Z,99122.28
2017-08-24T10:01:42.772Z,99113.48
2017-08-24T10:04:10.985Z,99110.05
2017-08-24T10:06:38.455Z,99105.47
2017-08-24T10:09:06.722Z,99106.12
2017-08-24T10:11:34.236Z,99099.20
2017-08-24T10:14:01.770Z,99099.16
2017-08-24T10:16:29.241Z,99100.95
2017-08-24T10:18:56.739Z,99102.53
2017-08-24T10:21:24.225Z,99105.66
2017-08-24T10:23:51.723Z,99112.97
2017-08-24T10:26:19.202Z,99102.17
2017-08-24T10:28:46.739Z,99098.04
2017-08-24T10:31:14.177Z,99106.81
2017-08-24T10:33:41.625Z,99106.12
2017-08-24T10:36:09.132Z,99109.84
2017-08-24T10:38:37.559Z,99102.89
2017-08-24T10:41:05.412Z,99116.43
2017-08-24T10:43:32.891Z,99109.67
2017-08-24T10:46:00.431Z,99109.45
2017-08-24T10:48:27.924Z,99112.53
2017-08-24T10:50:55.457Z,99111.55
2017-08-24T10:53:22.950Z,99109.81
2017-08-24T10:55:50.546Z,99114.07
2017-08-24T10:58:18.035Z,99117.00
2017-08-24T11:00:45.488Z,99113.17
2017-08-24T11:03:12.986Z,99114.53
2017-08-24T11:05:40.451Z,99111.66
2017-08-24T11:08:07.939Z,99110.14
2017-08-24T11:10:35.417Z,99111.92
2017-08-24T11:13:02.919Z,99106.52
2017-08-24T11:15:30.420Z,99109.11
2017-08-24T11:17:57.903Z,99102.91
2017-08-24T11:20:25.451Z,99106.38
2017-08-24T11:22:52.926Z,99100.70
2017-08-24T11:25:20.925Z,99107.59
2017-08-24T11:27:48.455Z,99107.11
2017-08-24T11:30:15.970Z,99110.50
2017-08-24T11:32:43.445Z,99108.76
2017-08-24T11:35:10.976Z,99108.65
2017-08-24T11:37:38.507Z,99108.09
2017-08-24T11:40:06.037Z,99105.61
2017-08-24T11:42:33.532Z,99101.17
2017-08-24T11:45:01.131Z,99103.73
2017-08-24T11:47:28.517Z,99103.71
2017-08-24T11:49:56.039Z,99102.48
2017-08-24T11:52:24.448Z,99099.16
2017-08-24T11:54:52.075Z,99098.22
2017-08-24T11:57:19.569Z,99103.06
2017-08-24T11:59:47.104Z,99098.22
2017-08-24T12:02:14.641Z,99094.52
2017-08-24T12:04:42.110Z,99087.91
2017-08-24T12:07:09.599Z,99086.80
2017-08-24T12:09:37.105Z,99098.86
2017-08-24T12:12:05.146Z,99091.05
2017-08-24T12:14:32.621Z,99090.88
2017-08-24T12:17:00.150Z,99097.05
2017-08-24T12:19:27.614Z,99094.07
2017-08-24T12:21:55.098Z,99105.52
2017-08-24T12:24:22.612Z,99100.08
2017-08-24T12:26:50.067Z,99093.59
2017-08-24T12:29:17.546Z,99094.03
2017-08-24T12:31:45.047Z,99099.95
2017-08-24T12:34:12.729Z,99103.70
2017-08-24T12:36:40.222Z,99096.83
2017-08-24T12:39:08.163Z,99105.81
2017-08-24T12:41:35.727Z,99105.96
2017-08-24T12:44:06.367Z,99101.92
2017-08-24T12:46:33.916Z,99105.71
2017-08-24T12:49:01.432Z,99108.38
2017-08-24T12:51:28.876Z,99104.34
2017-08-24T12:53:56.745Z,99109.72
2017-08-24T12:56:24.249Z,99101.86
2017-08-24T12:58:51.728Z,99090.51
2017-08-24T13:01:19.214Z,99107.14
2017-08-24T13:03:46.668Z,99106.32
2017-08-24T13:06:14.215Z,99109.03
2017-08-24T13:08:41.744Z,99108.94
2017-08-24T13:11:09.687Z,99112.41
2017-08-24T13:13:37.192Z,99116.20
2017-08-24T13:16:05.379Z,99123.80
2017-08-24T13:18:33.637Z,99112.28
2017-08-24T13:21:01.151Z,99106.06
2017-08-24T13:23:28.707Z,99102.45
2017-08-24T13:25:56.196Z,99108.66
2017-08-24T13:28:24.370Z,99109.93
2017-08-24T13:30:51.844Z,99113.81
2017-08-24T13:33:19.382Z,99106.54
2017-08-24T13:35:46.864Z,99103.78
2017-08-24T13:38:14.446Z,99092.19
2017-08-24T13:40:41.995Z,99101.30
2017-08-24T13:43:09.487Z,99096.64
2017-08-24T13:45:37.012Z,99093.92
2017-08-24T13:48:04.890Z,99088.73
2017-08-24T13:50:32.402Z,99089.83
2017-08-24T13:52:59.883Z,99093.50
2017-08-24T13:55:27.666Z,99087.92
2017-08-24T13:57:55.152Z,99098.56
2017-08-24T14:00:22.646Z,99099.77
2017-08-24T14:02:50.213Z,99092.73
2017-08-24T14:05:17.730Z,99099.06
2017-08-24T14:07:45.188Z,99102.98
2017-08-24T14:10:12.689Z,99087.63
2017-08-24T14:12:40.214Z,99098.69
2017-08-24T14:15:07.814Z,99102.52
2017-08-24T14:17:35.315Z,99104.20
2017-08-24T14:20:02.805Z,99103.20
2017-08-24T14:22:30.326Z,99100.13
2017-08-24T14:24:57.827Z,99104.86
2017-08-24T14:27:25.341Z,99099.34
2017-08-24T14:29:52.813Z,99094.67
2017-08-24T14:32:20.362Z,99095.17
2017-08-24T14:34:47.821Z,99094.11
2017-08-24T14:37:16.180Z,99101.49
2017-08-24T14:39:43.788Z,99089.69
2017-08-24T14:42:11.322Z,99092.21
2017-08-24T14:44:39.383Z,99088.70
2017-08-24T14:47:06.900Z,99084.89
2017-08-24T14:49:34.410Z,99085.67
2017-08-24T14:52:01.902Z,99084.88
2017-08-24T14:54:29.451Z,99074.67
2017-08-24T14:56:57.665Z,99079.98
2017-08-24T14:59:26.088Z,99075.08
2017-08-24T15:01:54.457Z,99015.24
2017-08-24T15:04:21.949Z,99077.56
2017-08-24T15:06:50.625Z,99080.41
2017-08-24T15:09:18.098Z,99086.63
2017-08-24T15:11:47.654Z,99080.38
2017-08-24T15:14:15.178Z,99085.28
2017-08-24T15:16:42.669Z,99088.94
2017-08-24T15:19:10.277Z,99091.92
2017-08-24T15:21:37.809Z,99091.19
2017-08-24T15:24:05.659Z,99082.02
2017-08-24T15:26:33.215Z,99088.43
2017-08-24T15:29:01.230Z,99082.66
2017-08-24T15:31:29.108Z,99079.37
2017-08-24T15:33:56.569Z,99083.70
2017-08-24T15:36:24.888Z,99084.50
2017-08-24T15:38:52.378Z,99078.30
2017-08-24T15:41:19.891Z,99079.13
2017-08-24T15:43:47.366Z,99076.84
2017-08-24T15:46:14.890Z,99088.13
2017-08-24T15:48:42.381Z,99091.09
2017-08-24T15:51:09.866Z,99094.69
2017-08-24T15:53:37.425Z,99096.97
2017-08-24T15:56:05.743Z,99094.72
2017-08-24T15:58:33.262Z,99097.56
2017-08-24T16:01:00.717Z,99092.20
2017-08-24T16:03:28.235Z,99096.59
2017-08-24T16:05:56.017Z,99090.05
2017-08-24T16:08:23.703Z,99094.92
2017-08-24T16:10:52.229Z,99094.28
2017-08-24T16:13:19.855Z,99097.10
2017-08-24T16:15:47.351Z,99092.27
2017-08-24T16:18:14.849Z,99084.63
2017-08-24T16:20:42.337Z,99095.27
2017-08-24T16:23:09.819Z,99094.18
2017-08-24T16:25:37.302Z,99091.77
2017-08-24T16:28:04.920Z,99086.67
2017-08-24T16:30:32.428Z,99092.41
2017-08-24T16:32:59.895Z,99093.36
2017-08-24T16:35:27.379Z,99086.55
2017-08-24T16:37:58.265Z,99088.07
2017-08-24T16:40:26.560Z,99098.86
2017-08-24T16:42:54.086Z,99087.93
2017-08-24T16:45:21.585Z,99091.84
2017-08-24T16:47:49.069Z,99090.92
2017-08-24T16:50:16.652Z,99081.65
2017-08-24T16:52:44.129Z,99094.50
2017-08-24T16:55:11.764Z,99098.95
2017-08-24T16:57:39.322Z,99101.00
2017-08-24T17:00:06.790Z,99101.03
2017-08-24T17:02:34.293Z,99093.27
2017-08-24T17:05:01.745Z,99096.33
2017-08-24T17:07:29.222Z,99097.28
2017-08-24T17:09:56.724Z,99097.21
2017-08-24T17:12:24.204Z,99102.16
2017-08-24T17:14:51.695Z,99095.56
2017-08-24T17:17:19.150Z,99093.59
2017-08-24T17:19:46.627Z,99100.29
2017-08-24T17:22:14.140Z,99103.89
2017-08-24T17:24:41.635Z,99094.08
2017-08-24T17:27:09.505Z,99095.38
2017-08-24T17:29:36.990Z,99099.13
2017-08-24T17:32:04.861Z,99088.41
2017-08-24T17:34:32.361Z,99105.03
2017-08-24T17:36:59.820Z,99104.34
2017-08-24T17:39:27.311Z,99095.28
2017-08-24T17:41:54.833Z,99094.48
2017-08-24T17:44:22.334Z,99093.86
2017-08-24T17:46:49.801Z,99095.48
2017-08-24T17:49:17.316Z,99098.88
2017-08-24T17:51:44.769Z,99103.95
2017-08-24T17:54:12.233Z,99103.13
2017-08-24T17:56:39.733Z,99105.37
2017-08-24T17:59:07.212Z,99104.88
2017-08-24T18:01:34.724Z,99096.45
2017-08-24T18:04:03.179Z,99096.72
2017-08-24T18:06:30.681Z,99095.05
2017-08-24T18:08:58.160Z,98996.44
2017-08-24T18:11:25.644Z,99096.13
2017-08-24T18:13:53.089Z,99079.52
2017-08-24T18:16:20.581Z,99086.42
2017-08-24T18:18:48.047Z,99085.81
2017-08-24T18:21:15.816Z,99096.59
2017-08-24T18:23:43.286Z,99100.55
2017-08-24T18:26:10.743Z,99100.56
2017-08-24T18:28:38.234Z,99111.25
2017-08-24T18:31:05.686Z,99105.95
2017-08-24T18:33:33.175Z,99106.06
2017-08-24T18:36:00.642Z,99104.27
2017-08-24T18:38:28.136Z,99104.26
2017-08-24T18:40:55.634Z,99102.63
2017-08-24T18:43:23.662Z,99097.02
2017-08-24T18:45:51.127Z,99111.90
2017-08-24T18:48:18.621Z,99105.24
2017-08-24T18:50:46.094Z,99104.95
2017-08-24T18:53:13.542Z,99109.91
2017-08-24T18:55:41.129Z,99101.41
2017-08-24T18:58:08.591Z,99102.99
2017-08-24T19:00:36.183Z,99110.55
2017-08-24T19:03:03.657Z,99105.83
2017-08-24T19:05:31.157Z,99107.91
2017-08-24T19:07:58.608Z,99104.97
2017-08-24T19:10:26.096Z,99102.33
2017-08-24T19:12:53.609Z,99107.57
2017-08-24T19:15:21.078Z,99102.78
2017-08-24T19:17:48.623Z,99106.20
2017-08-24T19:20:16.126Z,99109.64
2017-08-24T19:22:43.667Z,99108.80
2017-08-24T19:25:11.172Z,99113.66
2017-08-24T19:27:38.670Z,99110.73
2017-08-24T19:30:06.121Z,99104.66
2017-08-24T19:32:33.669Z,99111.84
2017-08-24T19:35:01.150Z,99113.38
2017-08-24T19:37:29.127Z,99114.17
2017-08-24T19:39:56.644Z,99111.36
2017-08-24T19:42:24.131Z,99127.84
2017-08-24T19:44:52.166Z,99129.23
2017-08-24T19:47:19.642Z,99122.73
2017-08-24T19:49:47.228Z,99127.30
2017-08-24T19:52:14.687Z,99131.39
2017-08-24T19:54:42.151Z,99130.63
2017-08-24T19:57:09.665Z,99133.99
2017-08-24T19:59:37.150Z,99130.91
2017-08-24T20:02:04.652Z,99132.66
2017-08-24T20:04:32.130Z,99132.02
2017-08-24T20:06:59.643Z,99119.38
2017-08-24T20:09:27.123Z,99122.92
2017-08-24T20:11:54.600Z,99127.06
2017-08-24T20:14:22.117Z,99121.98
2017-08-24T20:16:49.835Z,99116.83
2017-08-24T20:19:17.294Z,99120.28
2017-08-24T20:21:44.776Z,99112.23
2017-08-24T20:24:12.251Z,99117.00
2017-08-24T20:26:39.788Z,99117.80
2017-08-24T20:29:07.295Z,99124.00
2017-08-24T20:31:34.778Z,99126.30
2017-08-24T20:34:02.304Z,99126.22
2017-08-24T20:36:29.784Z,99119.23
2017-08-24T20:38:57.265Z,99121.37
2017-08-24T20:41:24.726Z,99121.86
2017-08-24T20:43:52.609Z,99112.18
2017-08-24T20:46:20.110Z,99124.10
2017-08-24T20:48:47.576Z,99121.77
2017-08-24T20:51:15.069Z,99121.11
2017-08-24T20:53:42.518Z,99129.22
2017-08-24T20:56:09.978Z,99128.38
2017-08-24T20:58:37.492Z,99122.88
2017-08-24T21:01:05.003Z,99128.26
2017-08-24T21:03:33.475Z,99127.29
2017-08-24T21:06:01.053Z,99127.82
2017-08-24T21:08:28.506Z,99131.64
2017-08-24T21:10:56.004Z,99134.30
2017-08-24T21:13:23.466Z,99134.39
2017-08-24T21:15:50.966Z,99135.02
2017-08-24T21:18:18.417Z,99131.12
2017-08-24T21:20:45.895Z,99142.69
2017-08-24T21:23:13.398Z,99139.30
2017-08-24T21:25:40.853Z,99141.72
2017-08-24T21:28:08.358Z,99141.34
2017-08-24T21:30:35.809Z,99144.86
2017-08-24T21:33:03.302Z,99140.03
2017-08-24T21:35:30.789Z,99144.89
2017-08-24T21:37:58.538Z,99144.83
2017-08-24T21:40:26.201Z,99142.32
2017-08-24T21:42:53.712Z,99149.23
2017-08-24T21:45:21.164Z,99150.89
2017-08-24T21:47:48.688Z,99150.34
2017-08-24T21:50:16.163Z,99149.94
2017-08-24T21:52:43.694Z,99150.42
2017-08-24T21:55:11.201Z,99152.00
2017-08-24T21:57:38.686Z,99162.39
2017-08-24T22:00:06.192Z,99158.03
2017-08-24T22:02:33.666Z,99154.15
2017-08-24T22:05:02.821Z,99155.18
2017-08-24T22:07:30.370Z,99150.80
2017-08-24T22:09:57.831Z,99158.05
2017-08-24T22:12:25.353Z,99151.58
2017-08-24T22:14:52.806Z,99155.20
2017-08-24T22:17:20.282Z,99150.05
2017-08-24T22:19:47.794Z,99150.11
2017-08-24T22:22:15.318Z,99159.97
2017-08-24T22:24:42.792Z,99157.30
2017-08-24T22:27:10.446Z,99160.63
2017-08-24T22:29:37.896Z,99160.23
2017-08-24T22:32:05.360Z,99164.77
2017-08-24T22:34:37.423Z,99160.03
2017-08-24T22:37:04.883Z,99162.05
2017-08-24T22:39:32.422Z,99161.11
2017-08-24T22:41:59.894Z,99153.71
2017-08-24T22:44:27.460Z,99157.47
2017-08-24T22:46:54.908Z,99154.48
2017-08-24T22:49:22.394Z,99165.31
2017-08-24T22:51:49.923Z,99156.98
2017-08-24T22:54:22.922Z,99164.79
2017-08-24T22:56:55.932Z,99163.58
2017-08-24T22:59:29.033Z,99158.64
2017-08-24T23:02:02.107Z,99163.59
2017-08-24T23:04:29.613Z,99164.20
2017-08-24T23:06:57.078Z,99170.50
2017-08-24T23:09:24.571Z,99177.67
2017-08-24T23:11:52.047Z,99186.21
2017-08-24T23:14:19.499Z,99180.36
2017-08-24T23:16:46.973Z,99174.72
2017-08-24T23:19:14.457Z,99169.50
2017-08-24T23:21:41.937Z,99154.50
2017-08-24T23:24:09.390Z,99166.41
2017-08-24T23:26:36.869Z,99151.52
2017-08-24T23:29:04.381Z,99173.59
2017-08-24T23:31:31.908Z,99176.39
2017-08-24T23:33:59.381Z,99172.63
2017-08-24T23:36:26.879Z,99168.52
2017-08-24T23:38:54.332Z,99163.07
2017-08-24T23:41:21.798Z,99160.29
2017-08-24T23:43:49.286Z,99159.22
2017-08-24T23:46:16.769Z,99163.33
2017-08-24T23:48:44.285Z,99165.78
2017-08-24T23:51:11.758Z,99168.94
2017-08-24T23:53:40.111Z,99159.41
2017-08-24T23:56:07.563Z,99152.23
2017-08-24T23:58:35.037Z,99156.17
